Les Masies de Roda





Hora UTC 21:00
Temperatura 0.7 ºC
Sòl 15 cm -1.5 ºC
Subsòl 10 cm 3.5 ºC
Humitat 95.8 %
Pressió 1000.2 hPa
Pluja 0.0 mm
Velocitat vent 0.3 km/h
Direcció vent S
Radiació solar 0.1 W/m²

Dades diàries 2021-11-27



Hora UTC (hivern +1h; estiu +2h)
Temperatura (ºC) Humitat (%) Pressió (hPa) Velocitat vent (km/h) Precipitació (mm) Radiació solar (W/m²)
Hora UTC Aire Sòl 15 cm Subsòl 10 cm Humitat Pressió Vel. Dir. Vel. Max Dir. Intent. màx 5 min. Rad. Sol.
00:05 4.4 3.8 5.9 93.2 1001.6 0.6 NE 0.6 NE 0.0 0.1
00:10 4.4 3.9 5.9 93.6 1001.5 0.2 NW 2.1 NNW 0.0 0.1
00:15 4.5 3.9 5.9 93.8 1001.5 1.7 NNW 3.2 NW 0.0 0.1
00:20 4.5 4.0 5.9 93.7 1001.3 0.9 NNW 3.2 NNW 0.0 0.1
00:25 4.5 3.9 5.9 93.7 1001.2 0.1 N 1.8 N 0.0 0.1
00:30 4.5 3.9 5.9 93.6 1001.2 1.6 NNE 3.2 N 0.0 0.1
00:35 4.5 3.9 5.9 93.5 1001.1 1.4 SW 3.5 SW 0.0 0.1
00:40 4.5 3.9 5.9 93.6 1001.2 3.1 SW 5.0 WSW 0.0 0.1
00:45 4.5 3.9 5.9 93.6 1001.2 3.2 W 4.2 WNW 0.0 0.1
00:50 4.5 3.8 5.9 93.9 1001.1 4.1 WNW 6.0 NW 0.0 0.1
00:55 4.4 3.7 5.9 94.0 1001.0 3.6 W 5.0 WNW 0.0 0.1
01:00 4.3 3.3 5.8 94.0 1000.9 2.9 WSW 4.2 WSW 0.0 0.3
01:05 4.2 2.9 5.7 94.1 1000.9 2.7 SW 5.0 WSW 0.0 0.1
01:10 4.1 2.6 5.6 94.2 1000.9 3.3 WSW 6.4 WSW 0.0 0.1
01:15 4.1 2.6 5.6 94.4 1000.9 1.8 WNW 3.5 WNW 0.0 0.1
01:20 4.0 2.6 5.6 94.5 1000.8 2.6 W 4.2 WSW 0.0 0.1
01:25 3.9 2.6 5.5 94.6 1000.8 3.5 W 5.0 W 0.0 0.1
01:30 3.9 2.6 5.5 94.5 1000.7 2.9 WSW 5.7 W 0.0 0.1
01:35 3.8 2.3 5.5 94.3 1000.7 4.2 WSW 6.0 WNW 0.0 0.1
01:40 3.7 2.0 5.4 94.1 1000.6 2.3 WSW 4.6 SW 0.0 0.1
01:45 3.6 1.8 5.3 93.9 1000.6 0.8 WSW 3.9 W 0.0 0.1
01:50 3.5 1.7 5.3 93.5 1000.5 3.6 W 8.1 W 0.0 0.1
01:55 3.4 1.8 5.2 93.2 1000.5 4.9 W 8.1 WSW 0.0 0.1
02:00 3.4 1.8 5.2 92.8 1000.5 2.7 W 6.4 WSW 0.0 0.1
02:05 3.4 1.7 5.2 92.6 1000.4 4.8 WSW 7.4 WSW 0.0 0.1
02:10 3.3 1.5 5.1 92.3 1000.4 3.0 WSW 6.4 SW 0.0 0.1
02:15 3.2 1.2 5.1 92.2 1000.4 2.4 W 4.2 NW 0.0 0.1
02:20 3.1 0.9 5.0 92.3 1000.3 3.9 W 6.7 W 0.0 0.1
02:25 2.9 0.6 4.9 92.4 1000.2 5.7 W 10.6 WNW 0.0 0.1
02:30 3.0 0.7 4.8 92.0 1000.2 6.2 W 10.3 W 0.0 0.1
02:35 3.0 0.7 4.8 91.3 1000.1 6.7 WNW 11.3 WNW 0.0 0.1
02:40 2.9 0.7 4.7 90.7 1000.1 8.2 WNW 12.0 W 0.0 0.1
02:45 3.1 1.2 4.7 89.7 1000.1 9.0 W 13.4 W 0.0 0.1
02:50 3.1 1.0 4.7 89.5 999.9 7.8 W 12.4 WNW 0.0 0.1
02:55 3.0 0.8 4.6 89.3 999.8 6.6 WNW 11.0 W 0.0 0.1
03:00 2.9 0.3 4.5 89.5 999.7 3.8 NW 8.1 WNW 0.0 0.1
03:05 2.7 0.1 4.4 90.0 999.6 4.1 WNW 7.4 WNW 0.0 0.1
03:10 2.5 -0.2 4.3 90.4 999.6 5.4 WNW 9.9 WNW 0.0 0.1
03:15 2.5 -0.1 4.3 90.5 999.5 6.4 WNW 10.3 W 0.0 0.1
03:20 2.4 -0.1 4.2 90.6 999.4 7.2 WNW 10.6 WNW 0.0 0.1
03:25 2.4 -0.1 4.2 90.9 999.2 5.9 WNW 8.8 NW 0.0 0.1
03:35 2.3 -0.1 4.1 91.1 999.2 5.5 W 9.9 NW 0.0 0.1
03:40 2.3 0.0 4.0 91.5 999.1 6.5 WNW 14.1 W 0.0 0.1
03:45 2.3 0.1 4.0 91.5 999.0 7.2 W 10.6 W 0.0 0.1
03:50 2.3 0.4 4.0 91.6 999.1 6.9 WNW 13.4 NW 0.0 0.1
03:55 2.3 0.5 4.0 91.6 999.1 8.0 WNW 15.2 WNW 0.0 0.1
04:00 2.4 0.7 4.0 91.4 999.1 9.3 WNW 14.5 W 0.0 0.1
04:05 2.3 0.7 4.0 91.3 999.0 8.8 NW 15.9 WNW 0.0 0.1
04:10 2.4 0.8 4.0 91.1 999.0 9.3 WNW 15.2 WNW 0.0 0.1
04:15 2.4 1.1 4.0 90.7 999.0 9.1 W 14.1 WNW 0.0 0.1
04:20 2.5 1.1 4.0 90.7 999.0 8.7 W 13.8 W 0.0 0.1
04:25 2.5 1.1 4.0 90.6 998.9 8.6 W 13.8 W 0.0 0.1
04:30 2.6 1.2 4.0 90.3 998.7 8.3 W 12.4 W 0.0 0.1
04:35 2.6 1.0 3.9 89.6 998.7 5.9 W 8.8 WNW 0.0 0.1
04:40 2.5 0.8 3.9 89.6 998.6 6.7 WNW 10.3 WNW 0.0 0.1
04:45 2.4 0.5 3.9 90.3 998.5 5.2 WNW 9.5 WNW 0.0 0.1
04:50 2.4 0.6 3.8 90.8 998.5 7.1 WNW 10.3 WNW 0.0 0.1
04:55 2.4 1.0 3.8 90.6 998.4 6.2 WNW 8.5 W 0.0 0.1
05:00 2.5 1.2 3.9 90.7 998.4 5.4 WNW 6.7 WNW 0.0 0.1
05:05 2.5 1.2 3.9 90.9 998.3 4.7 NW 6.4 WNW 0.0 0.1
05:10 2.6 1.4 3.9 90.9 998.3 3.7 NW 5.3 NW 0.0 0.1
05:15 2.6 1.6 3.9 90.9 998.4 3.9 NW 5.7 WNW 0.0 0.1
05:20 2.7 1.7 4.0 91.2 998.3 3.3 WNW 5.0 WNW 0.0 0.1
05:25 2.7 1.8 4.0 91.0 998.2 3.6 W 5.0 W 0.0 0.1
05:30 2.8 1.9 4.0 90.4 998.2 1.7 W 5.0 W 0.0 0.1
05:35 2.8 1.9 4.1 90.7 998.1 0.0 NNE 0.0 W 0.0 0.1
05:40 2.9 2.0 4.1 90.4 998.0 0.3 W 1.8 W 0.0 0.1
05:45 2.9 2.0 4.1 90.3 998.1 0.0 NNE 0.0 W 0.0 0.1
05:50 2.9 2.0 4.1 90.5 998.1 0.0 NNE 0.0 W 0.0 0.1
05:55 2.9 2.1 4.2 90.3 998.2 0.0 NNE 0.0 W 0.0 0.1
06:00 2.9 2.1 4.2 89.6 998.3 0.5 W 2.5 W 0.0 0.1
06:05 3.0 2.1 4.2 89.2 998.2 0.5 W 2.5 WSW 0.0 0.1
06:10 3.0 2.1 4.2 88.7 998.2 0.0 NNE 0.0 WSW 0.0 0.1
06:15 3.0 2.1 4.2 88.8 998.1 0.0 NNE 0.0 WSW 0.0 0.1
06:20 3.0 2.2 4.2 89.0 998.1 0.0 NNE 0.0 WSW 0.0 0.1
06:25 3.1 2.3 4.2 89.1 998.1 0.9 SW 3.2 SW 0.0 0.1
06:30 3.1 2.3 4.3 88.9 998.0 1.8 WNW 4.2 WNW 0.0 0.1
06:35 3.1 2.3 4.3 88.6 997.8 3.8 ENE 5.3 N 0.0 0.1
06:40 3.2 2.3 4.3 89.0 997.7 2.8 ENE 5.0 SE 0.0 0.2
06:45 3.2 2.2 4.3 88.9 997.7 1.2 NE 3.2 NNE 0.0 0.5
06:50 3.2 2.2 4.3 88.4 997.7 0.0 NNE 0.0 NE 0.0 0.9
06:55 3.2 2.3 4.3 87.9 997.7 0.3 NE 2.1 NE 0.0 1.1
07:00 3.2 2.4 4.3 88.5 997.8 1.2 NNW 4.2 WNW 0.0 1.8
07:05 3.2 2.4 4.3 87.8 997.8 2.6 NW 5.7 WNW 0.0 2.9
07:10 3.2 2.4 4.4 87.9 997.8 0.7 WSW 3.2 SW 0.0 6.6
07:15 3.2 2.4 4.4 88.3 997.7 1.5 NW 3.5 WNW 0.0 11.9
07:20 3.2 2.5 4.4 88.3 997.7 1.4 WNW 3.9 WNW 0.0 12.8
07:25 3.2 2.6 4.4 87.3 997.6 2.6 W 3.9 W 0.0 14.7
07:30 3.3 2.7 4.4 87.0 997.7 3.3 WNW 5.0 WNW 0.0 19.1
07:35 3.3 2.8 4.4 88.1 997.6 1.3 NW 3.5 NNW 0.0 23.0
07:40 3.4 2.9 4.5 87.1 997.7 2.9 NW 5.0 NNW 0.0 24.3
07:45 3.4 3.0 4.5 87.2 997.7 2.8 NNW 4.2 NNW 0.0 23.5
07:50 3.5 3.1 4.5 87.2 997.8 3.1 N 4.6 N 0.0 23.9
07:55 3.5 3.2 4.6 86.6 997.8 4.1 N 7.1 NNW 0.0 25.5
08:00 3.6 3.3 4.6 87.3 997.9 4.2 NNW 7.1 NNW 0.0 27.9
08:05 3.6 3.4 4.6 86.7 997.9 2.9 N 4.6 NNW 0.0 28.6
08:10 3.6 3.4 4.6 86.4 997.9 3.2 N 5.3 NNE 0.0 28.5
08:15 3.7 3.5 4.6 86.6 997.9 2.6 NE 6.4 NE 0.0 31.0
08:20 3.7 3.6 4.7 86.5 997.9 3.2 NE 7.1 NE 0.0 36.9
08:25 3.7 3.8 4.7 86.3 998.0 4.6 ENE 7.1 ENE 0.0 40.7
08:30 3.7 3.9 4.8 86.4 997.9 4.7 ENE 6.4 ENE 0.0 55.1
08:35 3.8 4.0 4.8 86.0 997.9 5.8 ENE 8.1 ENE 0.0 65.0
08:40 3.8 4.1 4.9 86.5 997.8 5.6 ENE 8.1 ENE 0.0 69.2
08:45 3.9 4.3 4.9 85.7 997.8 5.8 ENE 8.5 E 0.0 71.0
08:50 3.9 4.3 5.0 84.3 997.8 5.9 ENE 8.8 ENE 0.0 70.9
08:55 3.9 4.4 5.0 84.2 997.7 4.1 NE 8.5 ENE 0.0 79.4
09:00 4.0 4.6 5.1 83.8 997.6 5.9 ENE 7.8 ENE 0.0 85.6
09:05 4.1 4.7 5.1 84.1 997.6 5.4 ENE 7.8 NE 0.0 89.6
09:10 4.2 4.9 5.2 84.0 997.5 3.6 NE 7.8 NE 0.0 98.0
09:15 4.3 5.1 5.2 84.0 997.5 4.2 ENE 7.4 ENE 0.0 103.3
09:20 4.3 5.4 5.3 82.7 997.6 5.0 ENE 8.1 ENE 0.0 109.6
09:25 4.4 5.5 5.4 82.1 997.6 4.8 E 6.7 E 0.0 118.6
09:30 4.4 5.6 5.5 81.5 997.7 3.9 NE 6.4 NNE 0.0 115.2
09:35 4.5 5.8 5.5 81.6 997.7 3.5 ENE 6.0 E 0.0 103.4
09:40 4.5 5.8 5.6 81.3 997.8 4.8 ENE 7.4 ENE 0.0 94.8
09:45 4.5 5.8 5.7 81.5 997.8 3.4 E 6.7 ENE 0.0 106.1
09:50 4.7 5.8 5.7 81.5 997.8 3.7 NNE 6.0 NNE 0.0 104.5
09:55 4.7 5.6 5.8 80.3 997.9 3.7 NNE 7.1 NNE 0.0 88.7
10:00 4.7 5.6 5.8 80.2 997.9 2.5 E 5.0 ENE 0.0 88.1
10:05 4.7 5.8 5.8 80.0 998.0 3.4 NE 5.7 ENE 0.0 91.4
10:10 4.7 5.8 5.8 80.1 998.0 4.0 NE 7.8 ENE 0.0 104.7
10:15 4.8 5.9 5.9 80.7 998.0 4.8 NE 7.1 NE 0.0 122.5
10:20 4.9 6.1 6.0 80.5 997.9 4.3 E 6.7 ESE 0.0 136.0
10:25 4.9 6.5 6.0 80.5 997.8 4.1 E 8.1 ESE 0.0 142.1
10:35 5.1 6.9 6.2 80.5 997.8 4.6 E 7.8 ENE 0.0 152.9
10:40 5.2 7.1 6.3 80.6 997.7 7.5 ENE 10.3 ENE 0.0 164.9
10:45 5.3 7.2 6.4 80.3 997.6 6.4 ENE 11.0 ENE 0.0 193.2
10:50 5.5 7.4 6.5 80.0 997.5 6.1 E 9.9 ENE 0.0 183.3
10:55 5.6 7.6 6.6 79.7 997.5 3.4 E 9.2 E 0.0 196.9
11:00 5.6 7.8 6.7 78.9 997.6 6.5 ENE 9.5 ENE 0.0 186.4
11:05 5.7 7.9 6.8 78.2 997.5 5.4 ESE 8.5 ESE 0.0 208.5
11:10 5.7 8.0 6.9 78.6 997.4 5.2 E 8.1 ESE 0.0 212.6
11:15 5.8 8.2 7.0 77.9 997.4 6.1 ENE 9.9 ENE 0.0 180.1
11:20 5.8 7.6 7.0 78.0 997.4 3.7 ESE 7.1 ENE 0.0 159.3
11:25 5.9 7.8 7.1 77.9 997.5 5.7 ENE 8.1 ENE 0.0 141.4
11:30 5.8 7.7 7.1 77.3 997.5 4.8 ENE 7.1 ENE 0.0 153.5
11:35 5.9 7.9 7.1 77.5 997.5 4.6 E 7.1 SE 0.0 183.7
11:40 6.0 7.9 7.2 77.9 997.4 5.2 E 7.8 ESE 0.0 163.1
11:45 6.1 7.8 7.3 77.0 997.4 6.0 E 9.9 ESE 0.0 146.7
11:50 6.1 7.9 7.3 77.1 997.4 4.3 E 7.4 E 0.0 129.1
11:55 6.3 8.1 7.3 77.3 997.4 5.2 E 10.3 E 0.0 167.8
12:00 6.5 8.4 7.4 75.8 997.4 5.6 E 9.9 E 0.0 323.9
12:05 6.9 10.0 7.6 74.5 997.3 7.1 ENE 10.3 ENE 0.0 330.3
12:10 7.1 10.3 8.0 75.5 997.3 6.4 E 12.0 ENE 0.0 289.5
12:15 7.1 10.4 8.2 74.4 997.2 6.1 E 12.7 E 0.0 328.5
12:20 7.5 11.4 8.4 74.6 997.2 6.1 ENE 11.0 NE 0.0 500.3
12:25 7.8 12.8 8.7 72.9 997.2 7.0 NE 12.0 ENE 0.0 448.9
12:30 8.0 13.2 9.2 73.0 997.1 4.5 NE 8.8 ENE 0.0 486.7
12:35 8.3 13.4 9.4 71.7 997.1 5.2 NNE 10.3 NE 0.0 342.2
12:40 8.4 12.7 9.5 73.0 997.1 5.3 NW 8.1 NW 0.0 253.1
12:45 8.3 11.9 9.4 70.7 997.1 2.5 NNE 5.3 NE 0.0 189.3
12:50 8.3 11.1 9.3 72.4 996.9 5.6 NNW 9.9 N 0.0 201.7
12:55 8.3 10.7 9.2 72.1 996.8 4.6 N 8.1 NE 0.0 271.4
13:00 8.1 10.1 9.2 71.9 996.8 4.0 N 6.0 NE 0.0 146.5
13:05 8.1 9.8 9.2 74.1 996.7 2.6 NE 6.7 NE 0.0 166.6
13:10 8.1 9.9 9.1 72.0 996.6 5.8 E 10.3 ESE 0.0 211.5
13:15 8.2 10.1 9.2 72.1 996.5 6.4 ESE 12.0 ESE 0.0 237.2
13:20 8.3 10.4 9.2 73.2 996.3 6.7 E 13.1 E 0.0 191.0
13:25 8.3 10.2 9.2 72.2 996.3 6.7 E 12.0 ENE 0.0 157.4
13:30 8.4 10.1 9.2 72.6 996.3 6.6 E 12.0 E 0.0 148.8
13:35 8.4 9.8 9.2 71.2 996.1 6.9 ESE 13.1 E 0.0 149.2
13:40 8.6 9.9 9.1 70.7 996.2 4.3 E 8.5 ESE 0.0 201.9
13:45 9.2 11.1 9.2 67.3 996.2 3.8 E 7.8 ESE 0.0 311.3
13:50 9.7 12.0 9.5 64.2 996.2 5.6 S 9.9 S 0.0 372.1
13:55 10.3 12.7 9.9 61.7 996.1 7.8 SSW 12.0 SSW 0.0 405.6
14:00 10.7 13.4 10.2 61.2 996.1 6.4 S 12.0 S 0.0 355.6
14:05 10.7 13.9 10.5 59.6 996.0 5.7 SE 9.9 SE 0.0 322.6
14:10 10.6 14.1 10.7 58.6 995.9 5.0 SE 10.3 SE 0.0 328.7
14:15 11.1 14.3 10.8 56.9 995.8 3.8 SSE 9.2 SSW 0.0 327.2
14:20 11.4 14.0 10.9 56.0 995.9 7.7 SSW 12.7 S 0.0 284.1
14:25 11.2 13.0 11.0 56.8 996.2 10.8 SW 14.1 SW 0.0 254.3
14:30 11.1 12.7 11.0 58.0 996.5 8.3 SW 16.6 SSW 0.0 233.6
14:35 10.7 11.6 10.9 62.7 996.6 10.3 W 16.6 WSW 0.0 159.9
14:40 10.5 11.1 10.8 64.2 996.6 11.1 W 15.5 WNW 0.0 146.7
14:45 9.8 9.7 10.6 66.8 996.6 9.4 W 15.9 W 0.0 49.5
14:50 9.2 8.5 10.2 68.2 996.7 10.4 W 17.3 W 0.0 44.7
14:55 8.8 7.8 9.8 69.7 996.7 9.2 W 15.9 W 0.0 44.4
15:00 8.6 7.4 9.5 71.0 996.9 6.6 W 12.4 WNW 0.0 59.2
15:05 8.5 7.4 9.3 70.9 996.9 8.6 SW 15.5 SSW 0.0 76.6
15:10 8.5 7.3 9.2 71.6 997.0 5.6 SW 9.5 W 0.0 75.7
15:15 8.5 7.1 9.2 71.0 997.1 4.0 WSW 9.5 SW 0.0 52.5
15:20 8.4 6.8 9.1 71.3 997.2 3.8 WSW 8.8 WSW 0.0 42.9
15:25 8.3 6.4 8.9 71.8 997.4 4.8 W 8.1 W 0.0 31.8
15:30 8.1 6.2 8.8 71.6 997.3 5.7 WSW 11.7 W 0.0 31.1
15:35 7.9 6.0 8.7 71.7 997.4 3.8 WSW 6.7 WSW 0.0 27.9
15:40 7.8 5.8 8.6 71.8 997.4 4.4 SW 6.4 SW 0.0 22.1
15:45 7.7 5.6 8.4 71.5 997.3 3.8 SW 7.4 SW 0.0 20.7
15:50 7.7 5.6 8.3 71.1 997.3 6.0 SSW 9.2 SSW 0.0 19.4
15:55 7.6 5.5 8.2 72.2 997.3 6.1 SSW 9.9 SSW 0.0 17.1
16:00 7.5 5.3 8.1 74.2 997.4 4.8 SSW 8.1 SSW 0.0 15.8
16:05 7.4 5.1 8.0 74.9 997.5 6.5 SSW 8.1 S 0.0 12.0
16:10 7.2 5.0 7.9 75.4 997.4 7.3 S 11.3 S 0.0 9.8
16:15 7.2 5.0 7.8 75.6 997.5 6.0 S 10.3 S 0.0 7.8
16:20 7.1 4.8 7.7 76.1 997.5 5.4 S 9.5 SSW 0.0 6.5
16:25 7.0 4.9 7.6 77.0 997.6 6.7 SSW 8.8 SSW 0.0 5.1
16:30 6.9 4.8 7.5 77.3 997.6 6.8 SSW 11.3 S 0.0 3.1
16:35 6.7 4.5 7.4 78.2 997.7 4.9 SSW 7.4 SSW 0.0 1.3
16:40 6.6 4.1 7.3 78.7 997.7 2.9 SW 5.0 SSW 0.0 0.5
16:45 6.4 3.7 7.2 79.5 997.9 0.4 SSW 2.5 SSE 0.0 0.3
16:50 6.2 3.7 7.1 81.6 998.0 2.8 SSW 4.2 SSW 0.0 0.1
16:55 6.0 3.5 7.0 82.9 998.0 3.2 NW 5.3 N 0.0 0.1
17:00 5.8 3.5 6.9 85.0 998.1 4.6 N 6.0 N 0.0 0.1
17:05 5.9 3.6 6.9 84.4 998.2 2.1 N 4.6 N 0.0 0.1
17:10 5.7 3.3 6.8 85.8 998.2 0.0 NNE 0.0 NNE 0.0 0.1
17:15 5.6 3.1 6.8 86.4 998.3 1.9 NNE 4.2 NNE 0.0 0.1
17:20 5.4 2.9 6.7 86.7 998.4 0.3 NNE 2.1 NNE 0.0 0.1
17:25 5.2 2.5 6.5 87.5 998.3 0.3 N 3.9 WSW 0.0 0.1
17:30 5.0 2.1 6.4 88.0 998.3 2.0 SE 3.5 WSW 0.0 0.1
17:35 4.9 2.1 6.3 88.5 998.3 3.7 SE 5.0 SE 0.0 0.1
17:40 4.8 2.1 6.3 88.7 998.4 4.6 ESE 9.2 ESE 0.0 0.1
17:45 4.9 2.4 6.2 88.0 998.4 5.8 E 8.8 ESE 0.0 0.1
17:50 4.8 2.2 6.2 87.6 998.5 0.9 ESE 5.0 ESE 0.0 0.1
17:55 4.8 1.9 6.1 87.6 998.5 3.2 ENE 6.7 N 0.0 0.1
18:00 4.7 1.7 6.0 86.5 998.6 2.4 WNW 5.0 NNW 0.0 0.1
18:05 4.4 1.5 5.9 87.6 998.7 0.1 WSW 1.8 WSW 0.0 0.1
18:10 4.1 1.3 5.8 89.0 998.7 0.2 NNE 2.1 NNE 0.0 0.1
18:15 4.1 1.2 5.7 89.9 998.7 1.8 SE 3.9 SE 0.0 0.1
18:20 4.1 1.1 5.6 89.9 998.8 3.7 S 5.7 SSW 0.0 0.1
18:25 4.0 1.2 5.5 90.0 998.9 5.0 SE 7.1 ESE 0.0 0.1
18:30 3.9 1.2 5.5 89.9 998.9 2.8 SE 6.0 SE 0.0 0.1
18:35 3.9 1.3 5.4 90.5 999.0 4.3 E 6.7 SE 0.0 0.1
18:40 3.8 1.2 5.4 90.6 999.1 3.8 E 5.7 ESE 0.0 0.1
18:45 3.6 1.1 5.3 90.9 999.1 3.8 E 7.1 ESE 0.0 0.1
18:50 3.4 0.8 5.3 91.2 999.1 1.2 NE 3.5 NE 0.0 0.1
18:55 3.2 0.6 5.2 91.4 999.1 1.9 ESE 6.7 ESE 0.0 0.1
19:00 3.3 0.6 5.1 92.1 999.2 2.7 ESE 6.4 ESE 0.0 0.1
19:05 3.1 0.4 5.0 91.8 999.2 0.6 SSE 2.5 SSE 0.0 0.1
19:10 3.0 0.1 4.9 92.2 999.2 1.1 WSW 3.5 W 0.0 0.1
19:15 2.6 -0.3 4.8 92.0 999.2 0.9 NNE 4.2 ENE 0.0 0.1
19:20 2.4 -0.2 4.7 92.9 999.4 4.1 ENE 5.7 NE 0.0 0.1
19:25 2.2 -0.3 4.7 93.5 999.5 2.1 ENE 6.0 ENE 0.0 0.1
19:30 2.3 -0.2 4.6 94.3 999.5 4.6 WSW 6.4 WSW 0.0 0.1
19:35 2.2 -0.5 4.5 94.4 999.3 2.8 SSE 4.6 S 0.0 0.1
19:40 2.2 -0.2 4.5 94.7 999.5 4.9 ESE 7.8 ESE 0.0 0.1
19:45 2.2 0.0 4.4 95.0 999.5 3.2 NE 6.4 ENE 0.0 0.1
19:50 2.0 -0.3 4.4 94.7 999.5 0.7 NE 4.2 NE 0.0 0.1
19:55 1.9 -0.5 4.3 95.0 999.6 1.8 N 3.9 NW 0.0 0.1
20:00 1.9 -0.5 4.2 95.2 999.6 3.6 E 5.7 ESE 0.0 0.1
20:05 1.7 -0.6 4.2 95.1 999.7 0.0 NNE 0.0 ENE 0.0 0.1
20:10 1.6 -0.7 4.1 95.3 999.8 2.2 S 4.6 SSW 0.0 0.1
20:15 1.6 -0.9 4.0 95.5 999.8 2.4 ESE 5.3 ESE 0.0 0.1
20:20 1.5 -1.0 4.0 95.4 999.8 0.9 ESE 3.5 SE 0.0 0.1
20:25 1.3 -1.2 3.9 95.2 999.9 1.8 WSW 4.2 SW 0.0 0.1
20:30 1.2 -1.4 3.8 95.5 999.8 2.1 SSE 4.2 SE 0.0 0.1
20:35 1.2 -1.2 3.8 95.7 999.9 2.4 SE 4.2 SE 0.0 0.1
20:40 1.0 -1.2 3.7 95.7 1000.0 2.3 N 3.2 N 0.0 0.1
20:45 1.0 -1.3 3.7 95.8 1000.0 3.0 NE 6.0 ENE 0.0 0.1
20:50 1.0 -1.2 3.6 96.0 1000.1 2.1 ENE 3.9 ESE 0.0 0.1
20:55 0.9 -1.2 3.6 96.0 1000.2 2.5 N 3.5 N 0.0 0.1
21:00 0.7 -1.5 3.5 95.8 1000.2 0.3 S 3.2 S 0.0 0.1
Màxima 11.6 14.3 11.0 96.0 1001.6 11.1 W 17.3 W 0.0 500.3
Mínima 0.7 -1.5 3.5 56.0 995.8
Total 0.0